createdAt,value
2023-12-30T00:00:40.487Z,6.58
2023-12-30T00:05:44.013Z,7.53
2023-12-30T00:10:47.741Z,7.54
2023-12-30T00:15:51.260Z,7.76
2023-12-30T00:20:55.001Z,7.06
2023-12-30T00:25:58.504Z,7.46
2023-12-30T00:31:01.949Z,7.45
2023-12-30T00:36:06.636Z,7.31
2023-12-30T00:41:10.106Z,7.53
2023-12-30T00:46:14.509Z,7.40
2023-12-30T00:51:18.250Z,7.67
2023-12-30T00:56:21.639Z,7.53
2023-12-30T01:01:25.205Z,7.52
2023-12-30T01:06:28.628Z,7.52
2023-12-30T01:11:31.924Z,7.47
2023-12-30T01:16:38.007Z,7.95
2023-12-30T01:21:41.476Z,6.91
2023-12-30T01:26:45.081Z,7.67
2023-12-30T01:31:48.563Z,7.74
2023-12-30T01:36:52.046Z,7.82
2023-12-30T01:41:55.316Z,7.55
2023-12-30T01:47:00.619Z,7.90
2023-12-30T01:52:05.320Z,7.67
2023-12-30T01:57:10.649Z,7.90
2023-12-30T02:02:14.005Z,7.87
2023-12-30T02:07:18.036Z,7.85
2023-12-30T02:12:21.305Z,7.61
2023-12-30T02:17:24.675Z,7.91
2023-12-30T02:22:28.212Z,7.42
2023-12-30T02:27:32.026Z,7.60
2023-12-30T02:32:35.276Z,7.77
2023-12-30T02:37:39.068Z,7.85
2023-12-30T02:42:42.729Z,7.65
2023-12-30T02:47:46.079Z,7.61
2023-12-30T02:52:49.441Z,7.75
2023-12-30T02:57:53.051Z,7.60
2023-12-30T03:02:56.355Z,7.64
2023-12-30T03:08:00.736Z,7.74
2023-12-30T03:13:05.075Z,7.57
2023-12-30T03:18:08.713Z,7.87
2023-12-30T03:23:12.057Z,7.11
2023-12-30T03:28:15.500Z,7.67
2023-12-30T03:33:19.026Z,7.82
2023-12-30T03:38:22.977Z,7.45
2023-12-30T03:43:26.391Z,7.54
2023-12-30T03:48:29.771Z,7.24
2023-12-30T03:53:34.154Z,7.59
2023-12-30T03:58:37.634Z,7.68
2023-12-30T04:03:40.937Z,7.62
2023-12-30T04:08:44.286Z,6.98
2023-12-30T04:13:48.698Z,7.60
2023-12-30T04:18:52.135Z,6.83
2023-12-30T04:23:55.777Z,7.32
2023-12-30T04:28:59.125Z,7.56
2023-12-30T04:34:02.548Z,7.41
2023-12-30T04:39:05.972Z,7.45
2023-12-30T04:44:09.360Z,7.18
2023-12-30T04:49:13.616Z,7.54
2023-12-30T04:54:16.982Z,7.59
2023-12-30T04:59:21.108Z,7.28
2023-12-30T05:04:25.076Z,7.37
2023-12-30T05:09:28.393Z,7.46
2023-12-30T05:14:31.780Z,7.40
2023-12-30T05:19:35.406Z,7.52
2023-12-30T05:24:38.822Z,7.53
2023-12-30T05:29:42.368Z,7.50
2023-12-30T05:34:46.139Z,7.58
2023-12-30T05:39:49.469Z,7.60
2023-12-30T05:44:53.177Z,7.28
2023-12-30T05:49:56.931Z,7.39
2023-12-30T05:55:00.434Z,6.99
2023-12-30T06:00:04.266Z,7.51
2023-12-30T06:05:07.867Z,7.08
2023-12-30T06:10:11.911Z,7.30
2023-12-30T06:15:15.357Z,7.62
2023-12-30T06:20:18.613Z,7.35
2023-12-30T06:25:22.378Z,7.36
2023-12-30T06:30:25.816Z,7.20
2023-12-30T06:35:29.505Z,7.26
2023-12-30T06:40:33.076Z,7.36
2023-12-30T06:45:36.904Z,7.43
2023-12-30T06:50:40.333Z,7.26
2023-12-30T06:55:48.002Z,7.35
2023-12-30T07:00:51.968Z,7.38
2023-12-30T07:05:55.452Z,7.46
2023-12-30T07:10:58.778Z,7.25
2023-12-30T07:16:02.794Z,7.42
2023-12-30T07:21:06.879Z,6.77
2023-12-30T07:26:10.218Z,7.19
2023-12-30T07:31:17.183Z,7.41
2023-12-30T07:36:21.514Z,7.57
2023-12-30T07:41:25.544Z,7.34
2023-12-30T07:46:28.816Z,7.49
2023-12-30T07:51:32.583Z,7.56
2023-12-30T07:56:36.201Z,7.85
2023-12-30T08:01:46.053Z,7.69
2023-12-30T08:06:49.515Z,7.86
2023-12-30T08:11:59.568Z,8.14
2023-12-30T08:17:06.117Z,8.06
2023-12-30T08:22:09.423Z,7.92
2023-12-30T08:27:13.487Z,7.96
2023-12-30T08:32:16.793Z,8.19
2023-12-30T08:37:20.144Z,8.25
2023-12-30T08:42:24.044Z,8.13
2023-12-30T08:47:27.464Z,8.28
2023-12-30T08:52:31.007Z,8.39
2023-12-30T08:57:34.526Z,8.25
2023-12-30T09:02:38.283Z,8.21
2023-12-30T09:07:41.803Z,8.34
2023-12-30T09:12:48.925Z,8.25
2023-12-30T09:17:52.956Z,8.20
2023-12-30T09:22:56.752Z,8.59
2023-12-30T09:28:00.165Z,8.55
2023-12-30T09:33:04.778Z,8.42
2023-12-30T09:38:08.712Z,8.42
2023-12-30T09:43:13.955Z,8.46
2023-12-30T09:48:18.717Z,8.59
2023-12-30T09:53:24.121Z,8.40
2023-12-30T09:58:28.040Z,8.93
2023-12-30T10:03:32.536Z,8.86
2023-12-30T10:08:36.407Z,8.92
2023-12-30T10:13:40.000Z,9.03
2023-12-30T10:18:43.474Z,8.70
2023-12-30T10:23:50.150Z,8.95
2023-12-30T10:28:54.374Z,8.75
2023-12-30T10:33:57.867Z,8.77
2023-12-30T10:39:02.781Z,9.04
2023-12-30T10:44:06.472Z,8.68
2023-12-30T10:49:17.028Z,8.72
2023-12-30T10:54:26.218Z,8.69
2023-12-30T10:59:30.119Z,8.68
2023-12-30T11:04:33.837Z,8.71
2023-12-30T11:09:38.299Z,8.19
2023-12-30T11:14:41.572Z,8.94
2023-12-30T11:19:45.075Z,8.93
2023-12-30T11:24:49.471Z,8.14
2023-12-30T11:29:55.179Z,8.53
2023-12-30T11:35:01.486Z,8.25
2023-12-30T11:40:06.764Z,8.67
2023-12-30T11:45:10.442Z,8.62
2023-12-30T11:50:15.598Z,8.66
2023-12-30T11:55:18.929Z,8.67
2023-12-30T12:00:23.539Z,8.63
2023-12-30T12:05:27.347Z,7.68
2023-12-30T12:10:30.658Z,7.96
2023-12-30T12:15:34.675Z,7.72
2023-12-30T12:20:40.386Z,8.34
2023-12-30T12:25:45.126Z,8.23
2023-12-30T12:30:49.001Z,7.63
2023-12-30T12:35:52.335Z,8.25
2023-12-30T12:40:56.000Z,8.50
2023-12-30T12:45:59.829Z,8.40
2023-12-30T12:51:03.446Z,7.75
2023-12-30T12:56:07.329Z,8.37
2023-12-30T13:01:11.193Z,8.71
2023-12-30T13:06:15.082Z,8.26
2023-12-30T13:11:27.152Z,8.50
2023-12-30T13:16:30.454Z,8.09
2023-12-30T13:21:34.961Z,8.51
2023-12-30T13:26:39.578Z,8.65
2023-12-30T13:31:45.936Z,8.63
2023-12-30T13:36:58.923Z,8.42
2023-12-30T13:42:06.783Z,8.42
2023-12-30T13:47:28.998Z,8.66
2023-12-30T13:52:33.955Z,8.33
2023-12-30T13:57:39.279Z,8.61
2023-12-30T14:02:45.665Z,8.70
2023-12-30T14:07:53.084Z,8.68
2023-12-30T14:13:03.116Z,7.68
2023-12-30T14:18:07.096Z,8.55
2023-12-30T14:23:13.785Z,8.63
2023-12-30T14:28:17.247Z,8.61
2023-12-30T14:33:20.636Z,8.57
2023-12-30T14:38:24.285Z,7.80
2023-12-30T14:43:27.868Z,8.32
2023-12-30T14:48:31.297Z,8.60
2023-12-30T14:53:35.501Z,8.80
2023-12-30T14:58:39.166Z,8.01
2023-12-30T15:03:42.576Z,8.51
2023-12-30T15:08:47.282Z,8.53
2023-12-30T15:13:52.679Z,8.02
2023-12-30T15:18:56.588Z,8.30
2023-12-30T15:24:01.471Z,8.16
2023-12-30T15:29:04.813Z,8.31
2023-12-30T15:34:08.251Z,8.19
2023-12-30T15:39:13.539Z,8.20
2023-12-30T15:44:16.966Z,8.36
2023-12-30T15:49:20.402Z,8.04
2023-12-30T15:54:23.736Z,8.13
2023-12-30T15:59:28.657Z,8.50
2023-12-30T16:04:32.001Z,8.50
2023-12-30T16:09:35.710Z,8.28
2023-12-30T16:14:39.196Z,8.37
2023-12-30T16:19:43.327Z,8.12
2023-12-30T16:24:46.802Z,8.19
2023-12-30T16:29:51.427Z,8.52
2023-12-30T16:34:55.056Z,8.60
2023-12-30T16:39:58.345Z,8.47
2023-12-30T16:45:02.597Z,8.25
2023-12-30T16:50:08.035Z,8.36
2023-12-30T16:55:13.052Z,8.39
2023-12-30T17:00:17.558Z,8.14
2023-12-30T17:05:22.290Z,8.05
2023-12-30T17:10:25.692Z,8.51
2023-12-30T17:15:28.972Z,8.33
2023-12-30T17:20:35.245Z,8.19
2023-12-30T17:25:39.431Z,7.74
2023-12-30T17:30:42.937Z,7.47
2023-12-30T17:35:46.385Z,8.27
2023-12-30T17:40:50.211Z,8.33
2023-12-30T17:45:53.727Z,8.00
2023-12-30T17:50:57.043Z,8.20
2023-12-30T17:56:00.729Z,8.06
2023-12-30T18:01:04.876Z,7.65
2023-12-30T18:06:08.486Z,8.42
2023-12-30T18:11:11.832Z,7.90
2023-12-30T18:16:15.483Z,8.17
2023-12-30T18:21:18.803Z,7.29
2023-12-30T18:26:22.192Z,7.46
2023-12-30T18:31:25.933Z,8.18
2023-12-30T18:36:29.481Z,8.32
2023-12-30T18:41:33.000Z,8.27
2023-12-30T18:46:36.953Z,7.43
2023-12-30T18:51:42.528Z,8.12
2023-12-30T18:56:45.927Z,8.05
2023-12-30T19:01:50.147Z,8.27
2023-12-30T19:06:53.550Z,7.95
2023-12-30T19:11:57.192Z,8.32
2023-12-30T19:17:00.556Z,7.94
2023-12-30T19:22:06.000Z,8.06
2023-12-30T19:27:09.674Z,8.07
2023-12-30T19:32:13.002Z,7.61
2023-12-30T19:37:16.432Z,7.89
2023-12-30T19:42:19.794Z,7.90
2023-12-30T19:47:23.307Z,8.20
2023-12-30T19:52:26.730Z,8.24
2023-12-30T19:57:30.033Z,8.21
2023-12-30T20:02:33.502Z,8.16
2023-12-30T20:07:37.020Z,8.08
2023-12-30T20:12:40.698Z,8.16
2023-12-30T20:17:44.116Z,8.07
2023-12-30T20:22:48.415Z,8.19
2023-12-30T20:27:51.784Z,8.12
2023-12-30T20:32:55.128Z,7.90
2023-12-30T20:37:58.524Z,7.39
2023-12-30T20:43:02.010Z,8.15
2023-12-30T20:48:06.156Z,8.04
2023-12-30T20:53:10.916Z,8.14
2023-12-30T20:58:14.301Z,8.32
2023-12-30T21:03:18.023Z,7.56
2023-12-30T21:08:22.224Z,8.38
2023-12-30T21:13:25.678Z,7.75
2023-12-30T21:18:29.269Z,8.04
2023-12-30T21:23:32.549Z,7.38
2023-12-30T21:28:37.068Z,8.26
2023-12-30T21:33:40.436Z,8.06
2023-12-30T21:38:43.850Z,8.17
2023-12-30T21:43:47.359Z,8.21
2023-12-30T21:48:50.692Z,8.33
2023-12-30T21:53:56.935Z,7.94
2023-12-30T21:59:00.262Z,7.52
2023-12-30T22:04:03.982Z,8.02
2023-12-30T22:09:07.411Z,8.02
2023-12-30T22:14:10.885Z,7.43
2023-12-30T22:19:15.017Z,7.44
2023-12-30T22:24:18.420Z,7.84
2023-12-30T22:29:21.973Z,8.14
2023-12-30T22:34:25.430Z,7.55
2023-12-30T22:39:28.753Z,7.95
2023-12-30T22:44:32.757Z,7.32
2023-12-30T22:49:38.559Z,7.71
2023-12-30T22:54:44.401Z,8.15
2023-12-30T22:59:47.844Z,8.10
2023-12-30T23:04:51.363Z,8.26
2023-12-30T23:09:55.310Z,7.59
2023-12-30T23:14:58.689Z,8.04
2023-12-30T23:20:04.079Z,7.50
2023-12-30T23:25:08.046Z,7.82
2023-12-30T23:30:12.172Z,8.03
2023-12-30T23:35:15.647Z,8.15
2023-12-30T23:40:19.052Z,7.59
2023-12-30T23:45:22.352Z,7.99
2023-12-30T23:50:25.801Z,7.57
2023-12-30T23:55:29.117Z,7.87
